Alsip, IL

9:46 PM CST on January 24, 2015 (GMT -0600)
West 135th Street | Change Station
CLOSE
Current Station
Personal Weather Station
Location: Orland Park, IL
Elevation: 633 ft
Nearby Weather Stations
Active Advisory: Special Statement

Elev 633 ft 41.65 °N, 87.78 °W | Updated 3 minutes ago

Overcast
Overcast
32.0 °F
Feels Like 32 °F
N
-
Wind Variable Wind from North

Today
High -- | Low -- °F
--% Chance of Precip.
Yesterday
High -- | Low -- °F
Precip. -- in
7:10 AM 4:56 PM
Waxing Crescent, 28% visible
Pressure 29.71 in
Visibility 10.0 miles
Clouds Mostly Cloudy 11000 ft
Windchill 32 °F
Dew Point 28 °F
Humidity 85%
Rainfall -999.00 in
Snow Depth Not available.
UV 0 out of 12
Pollen .10 out of 12
Ozone Good
PM2.5 Good
Flu Activity Widespread
METAR KMDW 250253Z 02004KT 10SM BKN110 02/M01 A2968 RMK AO2 SLP061 T00221006 55000

More Conditions Fewer Conditions

Pressure 29.71 in
Visibility 10.0 miles
Clouds Mostly Cloudy 11000 ft
Windchill 32 °F
Dew Point 28 °F
Humidity 85%
Rainfall -999.00 in
Snow Depth Not available.
UV 0 out of 12
Pollen .10 out of 12
Ozone Good
PM2.5 Good
Flu Activity Widespread
METAR KMDW 250253Z 02004KT 10SM BKN110 02/M01 A2968 RMK AO2 SLP061 T00221006 55000

More Conditions Fewer Conditions

10-Day Weather Forecast

Almanac

Astronomy

Jan. 24, 2015 Rise Set
Actual Time 7:10 AM CST 4:56 PM CST
Civil Twilight 6:40 AM CST 5:26 PM CST
Nautical Twilight 6:06 AM CST 6:00 PM CST
Astronomical Twilight 5:33 AM CST 6:32 PM CST
Moon 9:34 AM CST (1/24) 10:18 PM CST (1/24)
Length of Visible Light 10h 46m
Length of Day
9h 46m
Tomorrow will be 2m 1s longer.
Waxing Crescent, 28% of the Moon is Illuminated
Today
Waxing Crescent
Jan 26
First Quarter
Feb 3
Full
Feb 11
Last Quarter
Feb 18
New

Today's Extremes

State Highs State Lows

Community

WunderPhotos

Upload Photos

1,789,825 photos uploaded!

Nearby

Air Quality

  Air Quality AQ Index Pollutant
Yesterday Moderate
PM2.5
Yesterday Good
OZONE
Current Good
PM2.5
Current Good
OZONE
Saturday Moderate
PM2.5
Sunday Moderate
PM2.5
Monday Good
PM2.5
Tuesday Moderate
PM2.5
Wednesday Moderate
PM2.5

Snow Depth

Station Depth Elevation
No new snow has been reported.

Earthquake Activity

City Distance Mag. Time & Date
No recent earthquake activity has been reported nearby.
Minimum magnitude displayed is 2.5.

Coastal Water Temperatures

Place Temperature
No Stations Reporting

Nearby Weather Stations